Time;durP1;ratioP1;P1;durP2;ratioP2;P2;SDS_P1;SDS_P2;PMS_P1;PMS_P2;Temp;Humidity;BMP_temperature;BMP_pressure;BME280_temperature;BME280_humidity;BME280_pressure;Samples;Min_cycle;Max_cycle;Signal;HPM_P1;HPM_P2
2021/07/28 00:02:06;;;;;;;5.72;3.25;;;;;;;19.82;62.15;100248.47;5034816;28;20073;-61
2021/07/28 00:04:40;;;;;;;9.05;4.60;;;;;;;19.78;62.25;100252.34;5039887;28;20076;-61
2021/07/28 00:07:10;;;;;;;11.98;4.25;;;;;;;19.77;62.24;100253.53;5047444;28;20042;-61
2021/07/28 00:09:37;;;;;;;9.80;4.47;;;;;;;19.71;62.47;100254.94;5040202;28;20749;-61
2021/07/28 00:12:04;;;;;;;8.15;3.83;;;;;;;19.73;62.47;100261.09;5036038;28;20084;-61
2021/07/28 00:14:31;;;;;;;8.73;3.13;;;;;;;19.70;62.61;100256.13;5037224;28;20132;-61
2021/07/28 00:16:59;;;;;;;10.25;4.13;;;;;;;19.64;62.63;100244.19;5035751;28;20125;-61
2021/07/28 00:19:34;;;;;;;11.93;4.32;;;;;;;19.61;62.46;100248.50;5037278;28;20041;-63
2021/07/28 00:24:46;;;;;;;10.13;4.10;;;;;;;19.55;62.89;100244.22;5040198;28;20095;-64
2021/07/28 00:27:13;;;;;;;9.07;4.43;;;;;;;19.55;62.61;100244.22;5038025;28;20131;-63
2021/07/28 00:29:40;;;;;;;11.55;4.20;;;;;;;19.38;63.01;100222.59;5043847;28;20466;-63
2021/07/28 00:32:07;;;;;;;10.20;3.53;;;;;;;19.46;62.90;100229.34;5031314;28;20939;-60
2021/07/28 00:34:34;;;;;;;11.55;4.60;;;;;;;19.40;62.81;100219.41;5041120;28;20140;-60
2021/07/28 00:37:00;;;;;;;9.27;4.40;;;;;;;19.50;62.87;100235.13;5042624;28;20072;-60
2021/07/28 00:39:27;;;;;;;10.20;4.70;;;;;;;19.36;63.01;100218.44;5046646;28;20161;-62
2021/07/28 00:41:54;;;;;;;13.02;4.65;;;;;;;19.47;63.19;100231.00;5045799;28;20080;-62
2021/07/28 00:44:21;;;;;;;10.75;4.40;;;;;;;19.38;63.09;100224.56;5038707;28;20143;-61
2021/07/28 00:46:48;;;;;;;9.95;5.35;;;;;;;19.37;63.52;100225.75;5034108;28;20124;-61
2021/07/28 00:49:15;;;;;;;12.55;5.00;;;;;;;19.39;63.26;100223.41;5035517;28;20064;-61
2021/07/28 00:51:42;;;;;;;10.95;4.72;;;;;;;19.38;63.18;100227.41;5036007;28;20120;-61
2021/07/28 00:54:10;;;;;;;10.70;4.68;;;;;;;19.27;63.42;100203.53;5052974;28;20613;-60
2021/07/28 00:56:36;;;;;;;13.30;5.15;;;;;;;19.35;63.23;100228.09;5044115;28;20059;-60
2021/07/28 00:59:03;;;;;;;12.15;5.20;;;;;;;19.36;63.61;100224.09;5041059;28;20120;-61
2021/07/28 01:01:30;;;;;;;10.85;4.85;;;;;;;19.33;63.48;100219.13;5043355;28;20158;-63
2021/07/28 01:03:58;;;;;;;11.02;5.03;;;;;;;19.36;63.47;100215.63;5037592;28;20041;-63
2021/07/28 01:06:25;;;;;;;9.07;4.47;;;;;;;19.28;63.67;100213.69;5050875;28;20140;-62
2021/07/28 01:08:52;;;;;;;12.15;4.45;;;;;;;19.26;63.66;100197.06;5040357;28;20132;-63
2021/07/28 01:11:24;;;;;;;8.15;3.88;;;;;;;19.31;63.40;100199.66;5040908;28;20049;-62
2021/07/28 01:13:51;;;;;;;9.25;4.78;;;;;;;19.38;63.55;100214.09;5049806;28;20110;-61
2021/07/28 01:16:23;;;;;;;16.02;4.40;;;;;;;19.40;63.59;100208.06;5038454;28;20049;-62
2021/07/28 01:18:51;;;;;;;9.10;4.72;;;;;;;19.38;63.81;100211.28;5036135;28;20053;-61
2021/07/28 01:21:19;;;;;;;10.48;5.55;;;;;;;19.40;63.54;100210.91;5035260;28;20077;-62
2021/07/28 01:23:48;;;;;;;12.00;5.55;;;;;;;19.16;63.87;100181.31;5032497;28;20065;-60
2021/07/28 01:26:15;;;;;;;15.40;4.43;;;;;;;19.36;63.88;100209.94;5038242;28;20109;-60
2021/07/28 01:28:42;;;;;;;13.55;5.55;;;;;;;19.39;63.68;100209.25;5034981;28;20241;-62
2021/07/28 01:31:15;;;;;;;12.50;4.45;;;;;;;19.07;63.77;100160.75;5036188;28;20140;-59
2021/07/28 01:33:47;;;;;;;9.73;4.25;;;;;;;19.23;64.07;100191.25;5044781;28;20083;-62
2021/07/28 01:36:21;;;;;;;7.93;3.47;;;;;;;19.30;63.71;100203.66;5032320;28;20096;-63
2021/07/28 01:38:51;;;;;;;9.27;4.40;;;;;;;19.24;63.75;100193.72;5035341;28;20125;-63
2021/07/28 01:41:18;;;;;;;12.82;4.72;;;;;;;19.36;63.97;100198.63;5046243;28;20076;-63
2021/07/28 01:43:45;;;;;;;7.65;3.88;;;;;;;19.31;63.80;100182.66;5035441;28;20049;-62
2021/07/28 01:46:14;;;;;;;11.75;4.03;;;;;;;19.42;63.77;100205.72;5047245;28;20125;-62
2021/07/28 01:48:41;;;;;;;6.72;3.17;;;;;;;19.37;63.75;100203.09;5041294;28;20497;-62
2021/07/28 01:51:08;;;;;;;8.85;3.88;;;;;;;19.31;63.94;100187.50;5044205;28;20080;-65
2021/07/28 01:53:36;;;;;;;10.88;4.40;;;;;;;19.33;63.74;100185.16;5034011;28;20047;-64
2021/07/28 01:56:03;;;;;;;10.18;3.75;;;;;;;19.32;63.93;100190.00;5039288;28;20316;-64
2021/07/28 01:58:30;;;;;;;11.43;4.28;;;;;;;19.24;64.29;100188.06;5031774;28;20045;-62
2021/07/28 02:00:57;;;;;;;8.77;4.03;;;;;;;19.33;64.22;100194.47;5037267;28;20072;-61
2021/07/28 02:03:24;;;;;;;10.23;3.95;;;;;;;19.35;64.14;100194.13;5034126;28;20061;-62
2021/07/28 02:05:51;;;;;;;9.48;4.68;;;;;;;19.39;64.21;100195.09;5032583;28;20077;-64
2021/07/28 02:08:18;;;;;;;6.90;4.03;;;;;;;19.40;64.27;100199.56;5039423;28;20116;-64
2021/07/28 02:10:48;;;;;;;10.07;3.92;;;;;;;19.37;64.03;100186.13;5041526;28;20116;-64
2021/07/28 02:13:16;;;;;;;12.77;3.92;;;;;;;19.45;64.13;100192.84;5037750;28;20044;-63
2021/07/28 02:15:44;;;;;;;10.68;3.90;;;;;;;19.44;64.19;100189.19;5032545;28;20049;-65
2021/07/28 02:18:11;;;;;;;8.05;4.13;;;;;;;19.45;63.92;100188.00;5041334;28;20171;-62
2021/07/28 02:20:38;;;;;;;9.57;3.80;;;;;;;19.32;63.93;100172.19;5031522;28;20124;-63
2021/07/28 02:23:06;;;;;;;8.18;4.00;;;;;;;19.36;64.10;100173.13;5030545;28;20126;-68
2021/07/28 02:25:33;;;;;;;8.57;3.80;;;;;;;19.34;64.27;100181.16;5045483;28;20124;-63
2021/07/28 02:28:00;;;;;;;8.38;3.78;;;;;;;19.40;64.13;100191.09;5035081;28;20037;-62
2021/07/28 02:30:27;;;;;;;7.63;4.20;;;;;;;19.31;64.09;100176.19;5038436;28;20546;-64
2021/07/28 02:32:54;;;;;;;11.80;4.40;;;;;;;19.29;64.34;100179.38;5037451;28;20103;-65
2021/07/28 02:35:21;;;;;;;7.95;3.67;;;;;;;19.27;63.96;100178.88;5039078;28;20136;-61
2021/07/28 02:37:48;;;;;;;7.28;3.95;;;;;;;19.35;64.25;100189.31;5047314;28;20132;-60
2021/07/28 02:40:18;;;;;;;9.70;3.83;;;;;;;19.31;63.87;100185.50;5048818;28;20074;-60
2021/07/28 02:42:46;;;;;;;8.50;3.88;;;;;;;19.27;64.21;100184.53;5044355;28;20076;-60
2021/07/28 02:45:13;;;;;;;9.60;3.35;;;;;;;19.24;64.31;100190.06;5030828;28;20128;-60
2021/07/28 02:47:40;;;;;;;10.40;3.60;;;;;;;19.19;64.08;100191.13;5041554;28;20678;-60
2021/07/28 02:50:24;;;;;;;7.00;4.07;;;;;;;19.20;64.31;100203.28;5106096;27;20405;-59
2021/07/28 02:52:51;;;;;;;9.70;4.72;;;;;;;19.18;64.43;100200.81;5100720;28;20143;-59
2021/07/28 02:55:18;;;;;;;9.23;4.40;;;;;;;19.14;64.66;100191.31;5102840;28;20046;-59
2021/07/28 02:57:45;;;;;;;13.23;4.20;;;;;;;19.21;64.71;100196.44;5100317;28;20068;-60
2021/07/28 03:00:12;;;;;;;9.93;4.45;;;;;;;19.17;64.83;100185.78;5098544;28;20276;-59
2021/07/28 03:02:39;;;;;;;9.73;4.32;;;;;;;19.20;64.35;100198.44;5102325;28;20491;-59
2021/07/28 03:05:06;;;;;;;8.88;4.28;;;;;;;19.17;64.55;100185.78;5096294;28;20123;-59
2021/07/28 03:07:35;;;;;;;12.35;4.32;;;;;;;19.23;64.71;100188.44;5108908;28;20128;-60
2021/07/28 03:10:03;;;;;;;7.95;3.97;;;;;;;19.22;64.50;100183.94;5100367;28;20048;-60
2021/07/28 03:12:30;;;;;;;9.63;4.10;;;;;;;19.23;64.52;100188.44;5101565;28;20052;-60
2021/07/28 03:14:57;;;;;;;10.05;3.63;;;;;;;19.21;64.38;100188.75;5103278;28;20152;-64
2021/07/28 03:17:24;;;;;;;7.22;3.63;;;;;;;19.28;64.57;100191.03;5095016;28;20128;-64
2021/07/28 03:19:52;;;;;;;13.10;4.65;;;;;;;19.23;64.79;100186.41;5092652;28;20054;-67
2021/07/28 03:22:19;;;;;;;7.72;4.00;;;;;;;19.16;64.83;100175.66;5125109;27;20055;-66
2021/07/28 03:24:46;;;;;;;7.55;3.63;;;;;;;19.24;64.73;100182.41;5103642;28;20123;-66
2021/07/28 03:27:12;;;;;;;7.28;4.40;;;;;;;19.27;65.06;100180.88;5101547;28;20139;-66
2021/07/28 03:29:39;;;;;;;9.52;4.15;;;;;;;19.33;64.87;100183.16;5105701;28;20047;-66
2021/07/28 03:32:06;;;;;;;10.85;3.80;;;;;;;19.39;64.70;100183.78;5097306;28;20543;-65
2021/07/28 03:34:33;;;;;;;7.25;3.88;;;;;;;19.43;64.43;100162.06;5099798;28;20075;-68
2021/07/28 03:37:00;;;;;;;7.18;3.72;;;;;;;19.61;64.30;100179.69;5100551;28;20143;-67
2021/07/28 03:39:29;;;;;;;8.35;3.67;;;;;;;19.64;64.23;100179.84;5101391;28;20123;-68
2021/07/28 03:41:55;;;;;;;14.10;3.85;;;;;;;19.60;64.22;100172.38;5101596;28;20475;-68
2021/07/28 03:44:22;;;;;;;7.72;3.80;;;;;;;19.54;64.36;100177.44;5104722;28;20127;-68
2021/07/28 03:46:49;;;;;;;7.45;4.95;;;;;;;19.42;64.50;100157.59;5099185;28;20130;-68
2021/07/28 03:49:16;;;;;;;6.82;4.10;;;;;;;19.53;64.48;100166.47;5093875;28;20091;-68
2021/07/28 03:51:42;;;;;;;8.82;4.63;;;;;;;19.36;64.45;100142.00;5097782;28;20122;-69
2021/07/28 03:54:09;;;;;;;7.28;4.32;;;;;;;19.48;64.43;100170.31;5103126;28;20076;-68
2021/07/28 03:56:36;;;;;;;8.05;3.67;;;;;;;19.35;64.71;100160.13;5097624;28;20566;-69
2021/07/28 03:59:03;;;;;;;9.90;4.72;;;;;;;19.33;64.94;100162.50;5097809;28;20118;-69
2021/07/28 04:01:30;;;;;;;9.27;3.75;;;;;;;19.32;65.01;100161.69;5086105;28;20124;-69
2021/07/28 04:03:57;;;;;;;11.35;4.18;;;;;;;19.32;64.80;100164.53;5081506;28;20141;-68
2021/07/28 04:06:24;;;;;;;7.95;4.50;;;;;;;19.24;64.57;100158.94;5083093;28;20559;-68
2021/07/28 04:08:51;;;;;;;10.05;4.57;;;;;;;19.23;64.55;100154.47;5080385;28;20137;-68
2021/07/28 04:11:17;;;;;;;13.32;4.45;;;;;;;19.21;64.69;100146.28;5085456;28;20079;-68
2021/07/28 04:13:44;;;;;;;6.72;4.28;;;;;;;19.28;64.57;100162.72;5081833;28;20131;-69
2021/07/28 04:16:11;;;;;;;8.50;4.25;;;;;;;19.26;65.01;100160.25;5088830;28;20539;-67
2021/07/28 04:18:38;;;;;;;16.00;4.38;;;;;;;19.19;64.85;100151.50;5089362;28;20048;-65
2021/07/28 04:21:05;;;;;;;8.88;4.43;;;;;;;19.20;64.80;100152.31;5085709;28;20127;-66
2021/07/28 04:23:32;;;;;;;12.93;5.78;;;;;;;19.08;64.78;100151.09;5089291;28;20044;-67
2021/07/28 04:25:59;;;;;;;14.43;5.72;;;;;;;18.99;64.45;100152.34;5089331;28;20161;-67
2021/07/28 04:28:26;;;;;;;12.95;5.05;;;;;;;18.98;64.83;100157.19;5082491;28;20102;-67
2021/07/28 04:30:53;;;;;;;9.25;4.80;;;;;;;18.91;64.59;100163.41;5086805;28;20036;-68
2021/07/28 04:33:21;;;;;;;10.88;4.72;;;;;;;18.93;64.44;100165.88;5085071;28;20131;-68
2021/07/28 04:35:48;;;;;;;7.97;3.65;;;;;;;19.03;64.07;100168.28;5085619;28;20052;-67
2021/07/28 04:38:15;;;;;;;10.02;4.93;;;;;;;18.97;64.35;100161.19;5084827;28;20071;-65
2021/07/28 04:40:41;;;;;;;8.60;4.80;;;;;;;18.74;64.42;100157.09;5082895;28;20121;-65
2021/07/28 04:43:08;;;;;;;10.50;4.32;;;;;;;18.70;64.46;100166.22;5084397;28;20078;-63
2021/07/28 04:45:35;;;;;;;9.77;4.70;;;;;;;18.58;64.54;100163.31;5088117;28;20066;-62
2021/07/28 04:48:04;;;;;;;10.13;4.88;;;;;;;18.46;64.58;100151.91;5078219;28;20048;-62
2021/07/28 04:50:32;;;;;;;7.93;3.70;;;;;;;18.42;64.65;100154.59;5085398;28;20048;-62
2021/07/28 04:52:59;;;;;;;7.18;3.92;;;;;;;18.42;64.83;100167.91;5090691;28;20051;-62
2021/07/28 04:55:26;;;;;;;9.77;4.40;;;;;;;18.32;64.39;100171.13;5089947;28;20578;-61
2021/07/28 04:57:53;;;;;;;11.07;5.03;;;;;;;18.22;64.91;100170.38;5090699;28;20131;-63
2021/07/28 05:00:20;;;;;;;10.93;4.65;;;;;;;18.20;64.86;100172.69;5084303;28;20131;-63
2021/07/28 05:02:47;;;;;;;9.98;4.93;;;;;;;18.00;65.07;100157.34;5080105;28;20122;-66
2021/07/28 05:05:14;;;;;;;12.32;4.10;;;;;;;18.11;65.12;100185.22;5085370;28;20044;-66
2021/07/28 05:07:44;;;;;;;16.20;4.88;;;;;;;18.06;65.21;100185.44;5082503;28;20040;-66
2021/07/28 05:10:11;;;;;;;7.95;3.90;;;;;;;18.01;64.78;100180.78;5083427;28;20078;-66
2021/07/28 05:12:38;;;;;;;12.13;4.63;;;;;;;17.96;65.02;100180.97;5082122;28;20047;-66
2021/07/28 05:15:05;;;;;;;11.48;4.85;;;;;;;17.94;65.47;100186.13;5080019;28;20075;-66
2021/07/28 05:17:32;;;;;;;7.75;4.65;;;;;;;17.85;65.36;100180.53;5085075;28;20036;-67
2021/07/28 05:19:59;;;;;;;10.98;4.75;;;;;;;17.83;65.38;100180.03;5088313;28;20128;-67
2021/07/28 05:22:26;;;;;;;16.70;5.03;;;;;;;17.92;65.94;100185.66;5082349;28;20512;-67
2021/07/28 05:24:54;;;;;;;13.82;5.63;;;;;;;18.05;65.79;100195.91;5084198;28;20499;-71
2021/07/28 05:27:22;;;;;;;19.75;6.13;;;;;;;18.17;66.03;100200.81;5079231;28;20102;-67
2021/07/28 05:29:49;;;;;;;11.45;6.30;;;;;;;18.18;66.00;100197.63;5086108;28;20079;-68
2021/07/28 05:32:16;;;;;;;14.07;6.60;;;;;;;18.30;66.01;100205.41;5086486;28;20452;-70
2021/07/28 05:34:42;;;;;;;13.20;6.15;;;;;;;18.34;65.76;100205.56;5076162;28;20139;-65
2021/07/28 05:37:09;;;;;;;12.85;6.88;;;;;;;18.16;66.07;100177.38;5079549;28;20131;-65
2021/07/28 05:39:36;;;;;;;11.68;6.32;;;;;;;18.22;66.22;100184.50;5081228;28;20045;-65
2021/07/28 05:42:03;;;;;;;12.00;5.63;;;;;;;18.38;66.29;100212.16;5084482;28;20075;-66
2021/07/28 05:44:32;;;;;;;12.75;5.45;;;;;;;18.37;66.00;100210.53;5084764;28;20076;-67
2021/07/28 05:46:59;;;;;;;13.52;6.30;;;;;;;18.38;66.33;100217.81;5086474;28;20082;-60
2021/07/28 05:49:26;;;;;;;12.20;6.72;;;;;;;18.51;66.31;100216.75;5081567;28;20131;-61
2021/07/28 05:51:53;;;;;;;14.25;6.78;;;;;;;18.63;65.96;100210.34;5085625;28;20119;-62
2021/07/28 05:54:20;;;;;;;10.88;5.95;;;;;;;18.67;65.80;100198.03;5077775;28;20193;-62
2021/07/28 05:56:46;;;;;;;13.90;6.13;;;;;;;18.78;65.46;100206.94;5092904;28;20222;-62
2021/07/28 05:59:14;;;;;;;9.73;6.13;;;;;;;18.85;65.58;100214.91;5081485;28;20130;-62
2021/07/28 06:01:41;;;;;;;15.15;6.28;;;;;;;18.85;65.41;100220.56;5081926;28;20067;-62
2021/07/28 06:04:08;;;;;;;16.33;6.32;;;;;;;18.81;65.56;100214.75;5074040;28;20044;-62
2021/07/28 06:06:35;;;;;;;19.48;6.88;;;;;;;18.72;65.43;100213.16;5087240;28;20056;-62
2021/07/28 06:09:02;;;;;;;15.25;6.13;;;;;;;18.87;65.56;100212.53;5079800;28;20109;-62
2021/07/28 06:11:29;;;;;;;13.60;5.93;;;;;;;18.81;65.14;100211.09;5085321;28;20123;-64
2021/07/28 06:13:56;;;;;;;13.18;5.78;;;;;;;18.85;65.41;100221.38;5076707;28;20131;-62
2021/07/28 06:16:23;;;;;;;23.27;7.03;;;;;;;18.85;65.34;100212.88;5080158;28;20101;-62
2021/07/28 06:18:50;;;;;;;13.65;7.07;;;;;;;18.75;65.33;100199.16;5084912;28;20044;-62
2021/07/28 06:21:20;;;;;;;18.15;6.95;;;;;;;18.91;65.26;100214.34;5083986;28;20063;-61
2021/07/28 06:23:47;;;;;;;12.65;5.63;;;;;;;19.00;65.45;100213.44;5082951;28;20049;-61
2021/07/28 06:26:14;;;;;;;11.00;5.70;;;;;;;19.16;65.13;100232.28;5089097;28;20076;-63
2021/07/28 06:28:41;;;;;;;11.50;5.55;;;;;;;19.29;65.16;100229.50;5084376;28;20101;-62
2021/07/28 06:31:08;;;;;;;10.00;5.07;;;;;;;19.27;64.85;100197.88;5085640;28;20066;-63
2021/07/28 06:33:35;;;;;;;9.73;4.82;;;;;;;19.68;64.26;100235.81;5080860;28;20051;-64
2021/07/28 06:36:02;;;;;;;6.82;4.68;;;;;;;19.81;64.15;100229.00;5082906;28;20062;-64
2021/07/28 06:38:29;;;;;;;10.98;5.75;;;;;;;20.05;63.74;100229.03;5087227;28;20138;-64
2021/07/28 06:40:56;;;;;;;9.30;4.55;;;;;;;20.26;63.37;100225.28;5089248;28;20078;-64
2021/07/28 06:43:22;;;;;;;12.52;5.22;;;;;;;20.45;62.73;100230.38;5088554;28;20131;-63
2021/07/28 06:45:49;;;;;;;8.88;4.60;;;;;;;20.54;62.30;100212.03;5079506;28;20062;-63
2021/07/28 06:48:16;;;;;;;7.78;4.50;;;;;;;20.96;61.68;100228.78;5079978;28;20105;-64
2021/07/28 06:50:43;;;;;;;7.07;4.03;;;;;;;21.21;61.23;100228.69;5083022;28;20163;-63
2021/07/28 06:53:10;;;;;;;14.48;5.32;;;;;;;21.41;60.82;100229.72;5080630;28;20060;-64
2021/07/28 06:55:37;;;;;;;8.70;4.63;;;;;;;21.55;60.32;100220.78;5080811;28;20064;-64
2021/07/28 06:58:04;;;;;;;8.32;3.97;;;;;;;21.72;60.20;100231.81;5082151;28;20072;-63
2021/07/28 07:00:32;;;;;;;8.18;4.55;;;;;;;21.99;59.80;100235.78;5076010;28;20136;-63
2021/07/28 07:03:00;;;;;;;10.43;4.90;;;;;;;22.19;59.00;100229.03;5085088;28;20064;-63
2021/07/28 07:05:27;;;;;;;8.70;4.30;;;;;;;22.44;58.40;100235.34;5086801;28;20047;-62
2021/07/28 07:07:54;;;;;;;8.48;5.43;;;;;;;22.70;58.05;100228.22;5086856;28;20575;-63
2021/07/28 07:10:21;;;;;;;14.15;5.15;;;;;;;22.89;57.39;100227.47;5083283;28;20126;-63
2021/07/28 07:12:48;;;;;;;15.63;5.22;;;;;;;23.06;57.20;100232.75;5082207;28;20040;-63
2021/07/28 07:15:15;;;;;;;20.52;5.45;;;;;;;23.20;56.60;100226.53;5076614;28;20139;-63
2021/07/28 07:17:43;;;;;;;10.65;4.63;;;;;;;23.81;55.51;100240.03;5077985;28;20079;-63
2021/07/28 07:20:11;;;;;;;15.65;5.15;;;;;;;24.27;54.62;100222.97;5080425;28;20140;-64
2021/07/28 07:22:38;;;;;;;9.05;4.35;;;;;;;24.83;53.43;100233.66;5075877;28;20150;-64
2021/07/28 07:25:06;;;;;;;8.32;4.43;;;;;;;25.31;52.28;100233.13;5087610;28;20079;-65
2021/07/28 07:27:32;;;;;;;13.82;5.05;;;;;;;25.65;51.97;100245.38;5084808;28;20036;-63
2021/07/28 07:29:59;;;;;;;7.90;4.85;;;;;;;25.76;51.33;100243.47;5084557;28;20496;-63
2021/07/28 07:32:29;;;;;;;13.10;5.28;;;;;;;25.72;51.18;100211.16;5078756;28;20037;-63
2021/07/28 07:34:57;;;;;;;;;;;;;;;26.15;52.79;100247.97;5084567;28;20044;-64
2021/07/28 07:37:25;;;;;;;8.82;4.55;;;;;;;26.60;50.49;100248.78;5083465;28;20260;-63
2021/07/28 07:39:52;;;;;;;8.02;5.20;;;;;;;26.84;49.74;100247.38;5084284;28;20502;-64
2021/07/28 07:42:19;;;;;;;8.05;4.90;;;;;;;27.03;49.09;100246.25;5081549;28;20130;-65
2021/07/28 07:44:48;;;;;;;9.95;4.97;;;;;;;27.31;48.65;100257.06;5090397;28;20067;-64
2021/07/28 07:47:16;;;;;;;6.47;4.65;;;;;;;27.56;48.06;100249.41;5086404;28;20479;-64
2021/07/28 07:49:43;;;;;;;13.85;5.00;;;;;;;27.74;47.62;100260.13;5075230;28;20092;-64
2021/07/28 07:52:10;;;;;;;8.25;5.00;;;;;;;27.97;46.82;100262.69;5090980;28;20148;-64
2021/07/28 07:54:37;;;;;;;10.13;4.90;;;;;;;28.22;46.31;100252.06;5088712;28;20105;-64
2021/07/28 07:57:04;;;;;;;8.35;4.72;;;;;;;28.52;45.75;100248.81;5093551;28;20091;-64
2021/07/28 07:59:31;;;;;;;9.75;4.32;;;;;;;28.66;45.42;100238.56;5086277;28;20101;-64
2021/07/28 08:01:58;;;;;;;6.00;4.25;;;;;;;28.77;44.86;100243.06;5092426;28;20126;-64
2021/07/28 08:04:25;;;;;;;7.85;4.75;;;;;;;28.91;44.81;100252.88;5087386;28;20491;-63
2021/07/28 08:06:52;;;;;;;9.75;4.43;;;;;;;29.02;44.49;100263.16;5089913;28;20123;-64
2021/07/28 08:09:18;;;;;;;10.70;4.70;;;;;;;29.17;44.28;100254.50;5084464;28;20127;-64
2021/07/28 08:11:45;;;;;;;10.13;4.60;;;;;;;29.30;43.72;100252.84;5093237;28;20184;-64
2021/07/28 08:14:12;;;;;;;7.22;4.28;;;;;;;29.51;43.51;100258.50;5093434;28;20123;-64
2021/07/28 08:16:39;;;;;;;9.52;5.10;;;;;;;29.67;43.08;100254.34;5083817;28;20448;-63
2021/07/28 08:19:06;;;;;;;16.88;5.22;;;;;;;29.75;42.59;100251.00;5081283;28;20074;-64
2021/07/28 08:21:33;;;;;;;11.55;3.95;;;;;;;29.90;42.44;100257.50;5081700;28;20178;-63
2021/07/28 08:24:00;;;;;;;8.05;3.85;;;;;;;30.02;42.31;100256.22;5087133;28;20036;-62
2021/07/28 08:26:27;;;;;;;12.35;5.95;;;;;;;30.12;41.73;100261.09;5083140;28;20127;-63
2021/07/28 08:28:54;;;;;;;10.40;4.00;;;;;;;30.30;41.17;100246.59;5079213;28;20063;-63
2021/07/28 08:31:21;;;;;;;11.10;4.32;;;;;;;30.49;40.90;100258.78;5093044;28;20043;-62
2021/07/28 08:33:48;;;;;;;6.85;3.45;;;;;;;30.44;41.20;100243.56;5083491;28;20471;-63
2021/07/28 08:36:15;;;;;;;13.77;4.05;;;;;;;30.57;40.82;100251.72;5080336;28;20075;-62
2021/07/28 08:38:42;;;;;;;5.05;3.45;;;;;;;30.68;40.48;100256.13;5093231;28;20090;-63
2021/07/28 08:41:09;;;;;;;5.50;3.72;;;;;;;30.81;39.99;100253.56;5095002;28;20127;-62
2021/07/28 08:43:38;;;;;;;6.03;3.55;;;;;;;31.01;39.29;100250.06;5079195;28;20044;-63
2021/07/28 08:46:07;;;;;;;12.33;3.90;;;;;;;31.14;39.18;100242.50;5087642;28;20122;-62
2021/07/28 08:48:35;;;;;;;6.97;3.85;;;;;;;31.22;38.83;100238.31;5091710;28;20044;-62
2021/07/28 08:51:04;;;;;;;7.75;3.78;;;;;;;31.24;38.97;100246.53;5081997;28;20457;-63
2021/07/28 08:53:32;;;;;;;5.38;3.55;;;;;;;31.30;38.46;100251.41;5078841;28;20668;-62
2021/07/28 08:56:00;;;;;;;5.38;3.30;;;;;;;31.47;37.79;100238.03;5086091;28;20044;-62
2021/07/28 08:58:29;;;;;;;5.15;3.25;;;;;;;31.61;37.74;100231.25;5084322;28;20040;-61
2021/07/28 09:00:56;;;;;;;4.47;2.92;;;;;;;31.90;37.88;100251.09;5082968;28;20105;-62
2021/07/28 09:03:24;;;;;;;5.47;3.33;;;;;;;31.98;37.56;100238.19;5095531;28;20095;-62
2021/07/28 09:05:52;;;;;;;6.05;3.72;;;;;;;32.23;37.36;100232.84;5082413;28;20047;-62
2021/07/28 09:08:27;;;;;;;5.28;3.70;;;;;;;32.35;36.53;100239.28;5083312;28;20076;-62
2021/07/28 09:10:56;;;;;;;6.15;4.10;;;;;;;32.43;36.63;100241.63;5086294;28;20132;-62
2021/07/28 09:13:37;;;;;;;7.50;2.92;;;;;;;32.49;36.85;100236.19;5082513;28;20127;-61
2021/07/28 09:16:10;;;;;;;6.10;3.10;;;;;;;32.39;36.23;100237.97;5079820;28;20045;-62
2021/07/28 09:18:40;;;;;;;4.68;3.08;;;;;;;32.09;36.06;100236.78;5083258;28;20062;-62
2021/07/28 09:21:28;;;;;;;6.68;3.33;;;;;;;31.73;37.01;100248.00;5082189;28;20043;-61
2021/07/28 09:24:09;;;;;;;6.80;3.00;;;;;;;31.81;36.40;100237.97;5089007;28;20146;-61
2021/07/28 09:26:39;;;;;;;6.15;3.80;;;;;;;31.85;36.51;100250.28;5085644;28;20181;-62
2021/07/28 09:29:13;;;;;;;6.32;3.25;;;;;;;31.95;36.40;100242.78;5087799;28;20131;-62
2021/07/28 09:31:50;;;;;;;6.90;3.35;;;;;;;31.83;36.42;100237.53;5079935;28;20135;-61
2021/07/28 09:34:21;;;;;;;5.55;3.50;;;;;;;32.06;36.41;100254.16;5085499;28;20048;-62
2021/07/28 09:37:10;;;;;;;6.45;3.22;;;;;;;32.40;36.06;100253.22;5085994;28;20044;-61
2021/07/28 09:39:48;;;;;;;10.13;3.33;;;;;;;32.43;35.55;100229.25;5081027;28;20083;-62
2021/07/28 09:42:17;;;;;;;8.95;3.45;;;;;;;32.30;35.59;100232.72;5087411;28;20496;-61
2021/07/28 09:44:46;;;;;;;4.30;2.85;;;;;;;32.42;34.80;100242.09;5085535;28;20210;-61
2021/07/28 09:47:20;;;;;;;6.30;3.17;;;;;;;32.46;34.35;100246.53;5081468;28;20076;-62
2021/07/28 09:50:07;;;;;;;6.00;2.78;;;;;;;32.13;35.20;100248.28;5085604;28;20131;-62
2021/07/28 09:52:34;;;;;;;4.85;2.60;;;;;;;32.13;34.31;100247.47;5080911;28;20444;-62
2021/07/28 09:55:28;;;;;;;5.20;2.92;;;;;;;32.44;34.06;100242.44;5091060;28;20494;-62
2021/07/28 09:58:00;;;;;;;4.15;2.97;;;;;;;32.98;33.41;100248.13;5087595;28;20044;-61
2021/07/28 10:00:28;;;;;;;3.22;2.63;;;;;;;32.83;33.60;100247.56;5082738;28;20142;-62
2021/07/28 10:03:07;;;;;;;6.77;2.87;;;;;;;32.74;33.96;100245.22;5083928;28;20048;-61
2021/07/28 10:05:39;;;;;;;8.30;3.58;;;;;;;32.84;33.55;100242.59;5086747;28;20118;-61
2021/07/28 10:08:09;;;;;;;5.38;2.95;;;;;;;32.95;33.26;100249.81;5084311;28;20184;-61
2021/07/28 10:10:37;;;;;;;8.43;3.35;;;;;;;32.78;32.98;100236.47;5087202;28;20399;-62
2021/07/28 10:13:05;;;;;;;5.50;2.50;;;;;;;32.72;33.30;100247.75;5084101;28;20055;-62
2021/07/28 10:15:32;;;;;;;5.85;2.50;;;;;;;32.75;33.76;100246.88;5098410;28;20086;-62
2021/07/28 10:18:00;;;;;;;5.10;2.83;;;;;;;32.81;33.08;100247.16;5084767;28;20040;-62
2021/07/28 10:20:27;;;;;;;4.43;2.70;;;;;;;32.85;32.89;100244.22;5083425;28;20044;-61
2021/07/28 10:22:57;;;;;;;5.25;2.95;;;;;;;32.65;32.69;100229.69;5081919;28;20131;-62
2021/07/28 10:25:25;;;;;;;4.20;2.60;;;;;;;32.86;33.21;100240.91;5089069;28;20101;-62
2021/07/28 10:27:53;;;;;;;3.83;2.60;;;;;;;33.06;32.05;100226.50;5081111;28;20630;-62
2021/07/28 10:30:21;;;;;;;5.10;3.30;;;;;;;33.06;32.46;100240.97;5077947;28;20049;-63
2021/07/28 10:32:48;;;;;;;8.40;3.00;;;;;;;33.05;32.19;100233.53;5084495;28;20128;-61
2021/07/28 10:35:18;;;;;;;5.97;2.83;;;;;;;33.25;32.60;100233.56;5086441;28;20075;-62
2021/07/28 10:37:45;;;;;;;4.05;3.08;;;;;;;33.19;32.40;100239.03;5077044;28;20047;-61
2021/07/28 10:40:24;;;;;;;7.88;3.55;;;;;;;33.26;32.43;100233.09;5087964;28;20101;-61
2021/07/28 10:42:54;;;;;;;7.93;3.13;;;;;;;33.28;32.52;100234.75;5071585;28;20537;-61
2021/07/28 10:45:24;;;;;;;5.13;3.45;;;;;;;33.31;32.57;100239.66;5076521;28;20524;-61
2021/07/28 10:47:52;;;;;;;8.65;3.28;;;;;;;33.15;33.06;100246.16;5081084;28;20134;-62
2021/07/28 10:50:21;;;;;;;8.77;3.35;;;;;;;33.09;33.30;100234.28;5084457;28;20061;-61
2021/07/28 10:52:58;;;;;;;9.95;3.42;;;;;;;33.03;33.55;100236.88;5079578;28;20555;-62
2021/07/28 10:55:33;;;;;;;8.38;3.58;;;;;;;33.24;33.31;100235.63;5084144;28;20593;-62
2021/07/28 10:58:06;;;;;;;8.15;3.55;;;;;;;33.48;33.36;100241.38;5080424;28;20045;-62
2021/07/28 11:00:38;;;;;;;8.98;3.10;;;;;;;33.78;32.78;100242.38;5081453;28;20044;-62
2021/07/28 11:03:11;;;;;;;6.88;3.42;;;;;;;33.97;32.84;100235.75;5081844;28;20053;-63
2021/07/28 11:05:42;;;;;;;7.40;3.90;;;;;;;33.98;32.77;100257.66;5084173;28;20549;-62
2021/07/28 11:08:12;;;;;;;7.15;3.63;;;;;;;34.04;32.80;100252.16;5085439;28;20052;-62
2021/07/28 11:10:49;;;;;;;9.60;3.78;;;;;;;34.16;32.69;100240.69;5087069;28;20075;-61
2021/07/28 11:13:18;;;;;;;8.02;3.50;;;;;;;34.02;32.62;100240.22;5088287;28;20125;-61
2021/07/28 11:16:01;;;;;;;5.45;3.25;;;;;;;33.45;33.50;100240.16;5082673;28;20079;-61
2021/07/28 11:18:34;;;;;;;6.63;3.50;;;;;;;33.49;33.48;100235.13;5081941;28;20064;-62
2021/07/28 11:21:09;;;;;;;6.50;3.90;;;;;;;33.03;33.49;100227.38;5084908;28;20120;-62
2021/07/28 11:23:36;;;;;;;5.28;3.75;;;;;;;32.92;34.51;100244.06;5090602;28;20491;-62
2021/07/28 11:26:13;;;;;;;9.43;4.10;;;;;;;33.06;34.33;100235.19;5097500;28;20127;-62
2021/07/28 11:28:42;;;;;;;12.98;4.00;;;;;;;33.09;34.83;100231.38;5081431;28;20068;-62
2021/07/28 11:31:09;;;;;;;12.68;4.50;;;;;;;33.17;34.28;100238.69;5091271;28;20147;-62